createdAt,value
2023-04-14T00:01:30.348Z,943.08
2023-04-14T00:03:56.861Z,943.04
2023-04-14T00:06:23.209Z,943.02
2023-04-14T00:08:49.637Z,943.08
2023-04-14T00:11:16.006Z,943.02
2023-04-14T00:13:42.427Z,943.00
2023-04-14T00:16:08.828Z,943.06
2023-04-14T00:18:35.259Z,943.04
2023-04-14T00:21:01.683Z,942.98
2023-04-14T00:23:28.072Z,942.92
2023-04-14T00:25:54.440Z,942.91
2023-04-14T00:28:21.009Z,942.82
2023-04-14T00:30:48.506Z,942.83
2023-04-14T00:33:14.863Z,942.84
2023-04-14T00:35:41.459Z,942.86
2023-04-14T00:38:07.842Z,942.89
2023-04-14T00:40:34.215Z,942.89
2023-04-14T00:43:00.631Z,942.89
2023-04-14T00:45:27.011Z,942.89
2023-04-14T00:47:53.500Z,942.84
2023-04-14T00:50:19.803Z,942.78
2023-04-14T00:52:46.211Z,942.78
2023-04-14T00:55:12.563Z,942.79
2023-04-14T00:57:38.993Z,942.73
2023-04-14T01:00:05.429Z,942.67
2023-04-14T01:02:31.939Z,942.69
2023-04-14T01:04:58.356Z,942.69
2023-04-14T01:07:24.612Z,942.62
2023-04-14T01:09:50.982Z,942.61
2023-04-14T01:12:17.376Z,942.69
2023-04-14T01:14:43.778Z,942.68
2023-04-14T01:17:10.161Z,942.64
2023-04-14T01:19:39.057Z,942.64
2023-04-14T01:22:05.483Z,942.71
2023-04-14T01:24:31.877Z,942.77
2023-04-14T01:26:58.243Z,942.69
2023-04-14T01:29:24.631Z,942.70
2023-04-14T01:31:51.050Z,942.68
2023-04-14T01:34:17.477Z,942.65
2023-04-14T01:36:43.943Z,942.61
2023-04-14T01:39:10.247Z,942.55
2023-04-14T01:41:36.683Z,942.62
2023-04-14T01:44:03.100Z,942.60
2023-04-14T01:46:29.526Z,942.61
2023-04-14T01:48:55.918Z,942.58
2023-04-14T01:51:22.323Z,942.66
2023-04-14T01:53:48.755Z,942.60
2023-04-14T01:56:15.146Z,942.60
2023-04-14T01:58:41.519Z,942.58
2023-04-14T02:01:08.052Z,942.46
2023-04-14T02:03:34.384Z,942.46
2023-04-14T02:06:00.756Z,942.55
2023-04-14T02:08:27.168Z,942.60
2023-04-14T02:10:53.628Z,942.64
2023-04-14T02:13:20.019Z,942.65
2023-04-14T02:15:46.433Z,942.67
2023-04-14T02:18:12.942Z,942.81
2023-04-14T02:20:39.325Z,942.67
2023-04-14T02:23:05.691Z,942.67
2023-04-14T02:25:32.072Z,942.75
2023-04-14T02:27:58.477Z,942.66
2023-04-14T02:30:25.019Z,942.56
2023-04-14T02:32:51.363Z,942.59
2023-04-14T02:35:17.711Z,942.52
2023-04-14T02:37:44.175Z,942.55
2023-04-14T02:40:10.558Z,942.51
2023-04-14T02:42:36.979Z,942.55
2023-04-14T02:45:03.394Z,942.62
2023-04-14T02:47:29.798Z,942.53
2023-04-14T02:49:56.143Z,942.62
2023-04-14T02:52:22.565Z,942.74
2023-04-14T02:54:49.031Z,942.55
2023-04-14T02:57:15.398Z,942.45
2023-04-14T02:59:41.826Z,942.40
2023-04-14T03:02:08.403Z,942.58
2023-04-14T03:04:34.708Z,942.55
2023-04-14T03:07:01.023Z,942.49
2023-04-14T03:09:27.396Z,942.43
2023-04-14T03:11:53.814Z,942.47
2023-04-14T03:14:20.238Z,942.28
2023-04-14T03:16:46.660Z,942.21
2023-04-14T03:19:13.050Z,942.13
2023-04-14T03:21:39.465Z,942.24
2023-04-14T03:24:05.871Z,942.32
2023-04-14T03:26:32.235Z,942.43
2023-04-14T03:28:58.693Z,942.50
2023-04-14T03:31:25.006Z,942.39
2023-04-14T03:33:51.381Z,942.40
2023-04-14T03:36:17.813Z,942.29
2023-04-14T03:38:44.188Z,942.15
2023-04-14T03:41:10.608Z,942.14
2023-04-14T03:43:36.975Z,942.00
2023-04-14T03:46:03.417Z,941.94
2023-04-14T03:48:29.842Z,941.83
2023-04-14T03:50:56.164Z,941.76
2023-04-14T03:53:22.542Z,941.67
2023-04-14T03:55:48.968Z,941.81
2023-04-14T03:58:15.353Z,941.79
2023-04-14T04:00:41.747Z,941.69
2023-04-14T04:03:08.334Z,941.66
2023-04-14T04:05:34.591Z,941.70
2023-04-14T04:08:00.981Z,941.72
2023-04-14T04:10:27.327Z,941.80
2023-04-14T04:12:53.702Z,941.80
2023-04-14T04:15:20.096Z,941.85
2023-04-14T04:17:46.552Z,941.84
2023-04-14T04:20:12.920Z,941.78
2023-04-14T04:22:39.363Z,941.70
2023-04-14T04:25:05.781Z,941.67
2023-04-14T04:27:32.168Z,941.72
2023-04-14T04:29:58.674Z,941.81
2023-04-14T04:32:25.244Z,941.87
2023-04-14T04:34:51.382Z,941.95
2023-04-14T04:37:17.798Z,941.86
2023-04-14T04:39:44.160Z,941.90
2023-04-14T04:42:10.578Z,941.96
2023-04-14T04:44:36.957Z,942.08
2023-04-14T04:47:03.331Z,942.14
2023-04-14T04:49:29.897Z,942.21
2023-04-14T04:51:56.301Z,942.22
2023-04-14T04:54:22.719Z,942.26
2023-04-14T04:56:49.159Z,942.20
2023-04-14T04:59:15.541Z,942.08
2023-04-14T05:01:41.959Z,942.09
2023-04-14T05:04:08.675Z,942.07
2023-04-14T05:06:34.994Z,942.06
2023-04-14T05:09:01.666Z,941.97
2023-04-14T05:11:27.826Z,941.85
2023-04-14T05:13:54.450Z,941.95
2023-04-14T05:16:20.990Z,941.97
2023-04-14T05:18:47.264Z,942.05
2023-04-14T05:21:13.629Z,941.98
2023-04-14T05:23:40.038Z,941.85
2023-04-14T05:26:26.963Z,941.89
2023-04-14T05:28:32.871Z,941.71
2023-04-14T05:31:01.265Z,941.59
2023-04-14T05:33:25.735Z,941.66
2023-04-14T05:35:52.147Z,941.55
2023-04-14T05:38:18.557Z,941.36
2023-04-14T05:40:45.018Z,941.33
2023-04-14T05:43:11.402Z,941.49
2023-04-14T05:45:37.806Z,941.34
2023-04-14T05:48:04.313Z,941.31
2023-04-14T05:50:30.654Z,941.21
2023-04-14T05:52:57.075Z,941.06
2023-04-14T05:55:23.449Z,941.17
2023-04-14T05:57:49.824Z,941.24
2023-04-14T06:00:16.228Z,941.16
2023-04-14T06:02:42.846Z,941.12
2023-04-14T06:05:09.140Z,941.22
2023-04-14T06:07:35.960Z,941.15
2023-04-14T06:10:02.350Z,941.21
2023-04-14T06:12:28.756Z,941.14
2023-04-14T06:14:55.387Z,941.06
2023-04-14T06:17:21.840Z,941.03
2023-04-14T06:19:48.199Z,940.92
2023-04-14T06:22:14.610Z,940.82
2023-04-14T06:24:42.320Z,940.80
2023-04-14T06:27:08.734Z,940.78
2023-04-14T06:29:35.103Z,940.72
2023-04-14T06:32:01.561Z,940.64
2023-04-14T06:34:27.964Z,940.51
2023-04-14T06:36:54.334Z,940.47
2023-04-14T06:39:20.708Z,940.29
2023-04-14T06:41:47.118Z,940.28
2023-04-14T06:44:13.480Z,940.37
2023-04-14T06:46:39.920Z,940.27
2023-04-14T06:49:06.608Z,940.43
2023-04-14T06:51:32.988Z,940.32
2023-04-14T06:53:59.605Z,940.19
2023-04-14T06:56:26.068Z,940.16
2023-04-14T06:58:52.489Z,940.07
2023-04-14T07:01:18.885Z,939.98
2023-04-14T07:03:45.251Z,939.79
2023-04-14T07:06:11.926Z,939.72
2023-04-14T07:08:38.199Z,939.98
2023-04-14T07:11:04.632Z,939.89
2023-04-14T07:13:30.996Z,940.06
2023-04-14T07:15:57.415Z,939.96
2023-04-14T07:18:23.798Z,939.83
2023-04-14T07:20:50.178Z,939.96
2023-04-14T07:23:16.625Z,939.96
2023-04-14T07:25:43.041Z,939.87
2023-04-14T07:28:09.431Z,939.67
2023-04-14T07:30:35.837Z,939.68
2023-04-14T07:33:02.293Z,939.79
2023-04-14T07:35:28.633Z,939.64
2023-04-14T07:37:55.223Z,939.55
2023-04-14T07:40:21.638Z,939.67
2023-04-14T07:42:48.106Z,939.79
2023-04-14T07:45:14.470Z,939.68
2023-04-14T07:47:41.049Z,939.57
2023-04-14T07:50:07.436Z,939.64
2023-04-14T07:52:33.819Z,939.41
2023-04-14T07:55:00.308Z,939.55
2023-04-14T07:57:26.729Z,939.66
2023-04-14T07:59:53.108Z,939.81
2023-04-14T08:02:19.577Z,939.60
2023-04-14T08:04:45.929Z,939.59
2023-04-14T08:07:12.297Z,939.91
2023-04-14T08:09:38.804Z,939.59
2023-04-14T08:12:05.216Z,939.72
2023-04-14T08:14:31.637Z,939.62
2023-04-14T08:16:58.010Z,939.69
2023-04-14T08:19:24.432Z,939.92
2023-04-14T08:21:50.846Z,939.46
2023-04-14T08:24:17.279Z,939.43
2023-04-14T08:26:43.668Z,939.83
2023-04-14T08:29:10.047Z,939.50
2023-04-14T08:31:36.487Z,939.62
2023-04-14T08:34:02.862Z,939.56
2023-04-14T08:36:29.240Z,939.76
2023-04-14T08:38:55.789Z,939.78
2023-04-14T08:41:22.195Z,939.85
2023-04-14T08:43:48.579Z,939.71
2023-04-14T08:46:14.987Z,939.62
2023-04-14T08:48:41.354Z,939.68
2023-04-14T08:51:07.793Z,939.89
2023-04-14T08:53:34.226Z,940.10
2023-04-14T08:56:00.596Z,940.08
2023-04-14T08:58:27.005Z,939.86
2023-04-14T09:00:53.723Z,939.86
2023-04-14T09:03:20.240Z,940.03
2023-04-14T09:05:46.447Z,940.07
2023-04-14T09:08:12.864Z,939.96
2023-04-14T09:10:40.702Z,939.96
2023-04-14T09:13:07.328Z,940.03
2023-04-14T09:15:33.695Z,939.81
2023-04-14T09:18:00.487Z,939.90
2023-04-14T09:20:35.718Z,940.20
2023-04-14T09:22:53.259Z,940.04
2023-04-14T09:25:19.653Z,939.94
2023-04-14T09:27:46.000Z,940.15
2023-04-14T09:30:12.503Z,939.94
2023-04-14T09:32:38.963Z,940.01
2023-04-14T09:35:05.637Z,940.23
2023-04-14T09:37:32.003Z,940.23
2023-04-14T09:39:58.384Z,940.10
2023-04-14T09:42:24.759Z,940.35
2023-04-14T09:44:51.164Z,940.19
2023-04-14T09:47:17.599Z,940.31
2023-04-14T09:49:43.958Z,940.49
2023-04-14T09:52:10.353Z,940.33
2023-04-14T09:54:36.931Z,940.59
2023-04-14T09:57:03.376Z,941.11
2023-04-14T09:59:29.788Z,940.82
2023-04-14T10:01:56.408Z,940.81
2023-04-14T10:04:23.994Z,940.54
2023-04-14T10:06:49.104Z,940.89
2023-04-14T10:09:15.551Z,941.04
2023-04-14T10:11:41.980Z,941.05
2023-04-14T10:14:08.355Z,941.18
2023-04-14T10:16:34.999Z,941.49
2023-04-14T10:19:01.290Z,941.19
2023-04-14T10:21:27.505Z,941.40
2023-04-14T10:23:53.913Z,941.57
2023-04-14T10:26:20.292Z,941.88
2023-04-14T10:28:46.813Z,941.94
2023-04-14T10:31:13.254Z,942.07
2023-04-14T10:33:39.594Z,942.15
2023-04-14T10:36:06.035Z,942.48
2023-04-14T10:38:32.736Z,942.41
2023-04-14T10:40:59.131Z,942.45
2023-04-14T10:43:25.547Z,942.79
2023-04-14T10:45:51.913Z,942.83
2023-04-14T10:48:18.473Z,942.98
2023-04-14T10:50:44.897Z,943.15
2023-04-14T10:53:11.307Z,943.58
2023-04-14T10:55:51.354Z,943.65
2023-04-14T10:58:04.137Z,943.69
2023-04-14T11:00:30.509Z,943.79
2023-04-14T11:02:57.125Z,943.94
2023-04-14T11:05:23.343Z,944.00
2023-04-14T11:07:49.751Z,944.05
2023-04-14T11:10:16.307Z,944.15
2023-04-14T11:12:42.657Z,944.19
2023-04-14T11:15:09.020Z,944.25
2023-04-14T11:17:35.566Z,944.31
2023-04-14T11:20:01.817Z,944.37
2023-04-14T11:22:28.141Z,944.25
2023-04-14T11:24:56.709Z,944.17
2023-04-14T11:27:23.281Z,944.19
2023-04-14T11:29:49.689Z,944.32
2023-04-14T11:32:16.199Z,944.31
2023-04-14T11:34:42.731Z,944.48
2023-04-14T11:37:09.194Z,944.60
2023-04-14T11:39:35.586Z,944.75
2023-04-14T11:42:02.128Z,944.64
2023-04-14T11:44:28.482Z,944.74
2023-04-14T11:46:55.863Z,944.81
2023-04-14T11:49:22.303Z,945.00
2023-04-14T11:51:48.628Z,944.97
2023-04-14T11:54:15.079Z,945.19
2023-04-14T11:56:41.561Z,945.17
2023-04-14T11:59:07.934Z,945.25
2023-04-14T12:01:34.333Z,945.29
2023-04-14T12:04:00.851Z,945.24
2023-04-14T12:06:27.106Z,945.05
2023-04-14T12:08:53.535Z,945.06
2023-04-14T12:11:19.910Z,945.10
2023-04-14T12:13:46.342Z,944.99
2023-04-14T12:16:12.856Z,944.97
2023-04-14T12:18:39.381Z,944.98
2023-04-14T12:21:07.307Z,945.01
2023-04-14T12:23:32.322Z,945.09
2023-04-14T12:25:58.730Z,944.99
2023-04-14T12:28:25.245Z,945.05
2023-04-14T12:30:51.776Z,944.96
2023-04-14T12:33:18.150Z,945.17
2023-04-14T12:35:44.529Z,945.15
2023-04-14T12:38:10.935Z,945.15
2023-04-14T12:40:37.296Z,944.89
2023-04-14T12:43:03.678Z,944.81
2023-04-14T12:45:30.300Z,944.95
2023-04-14T12:47:56.633Z,944.83
2023-04-14T12:50:25.299Z,944.76
2023-04-14T12:52:51.750Z,944.71
2023-04-14T12:55:18.183Z,944.54
2023-04-14T12:57:44.550Z,944.51
2023-04-14T13:00:11.005Z,944.51
2023-04-14T13:02:37.484Z,944.47
2023-04-14T13:05:03.788Z,944.49
2023-04-14T13:07:30.192Z,944.56
2023-04-14T13:09:56.620Z,944.50
2023-04-14T13:12:23.041Z,944.67
2023-04-14T13:14:49.688Z,944.62
2023-04-14T13:17:16.294Z,944.80
2023-04-14T13:19:42.685Z,944.57
2023-04-14T13:22:09.130Z,944.29
2023-04-14T13:24:35.455Z,944.44
2023-04-14T13:27:01.836Z,944.40
2023-04-14T13:29:28.274Z,944.83
2023-04-14T13:31:56.857Z,944.63
2023-04-14T13:34:23.234Z,944.77
2023-04-14T13:36:49.606Z,944.93
2023-04-14T13:39:16.303Z,944.87
2023-04-14T13:41:43.060Z,944.96
2023-04-14T13:44:09.773Z,944.71
2023-04-14T13:46:41.125Z,944.44
2023-04-14T13:49:04.276Z,944.11
2023-04-14T13:51:31.708Z,943.86
2023-04-14T13:53:57.276Z,943.94
2023-04-14T13:56:23.733Z,943.86
2023-04-14T13:58:50.113Z,944.10
2023-04-14T14:01:16.495Z,943.87
2023-04-14T14:03:43.395Z,943.88
2023-04-14T14:06:09.745Z,943.62
2023-04-14T14:08:36.234Z,943.49
2023-04-14T14:11:02.630Z,943.07
2023-04-14T14:13:29.014Z,943.50
2023-04-14T14:15:55.446Z,943.44
2023-04-14T14:18:21.842Z,942.78
2023-04-14T14:20:50.026Z,943.06
2023-04-14T14:23:14.989Z,943.01
2023-04-14T14:25:41.406Z,943.17
2023-04-14T14:28:07.897Z,942.85
2023-04-14T14:30:34.563Z,942.85
2023-04-14T14:33:01.085Z,943.08
2023-04-14T14:35:27.750Z,942.87
2023-04-14T14:37:54.145Z,942.84
2023-04-14T14:40:20.587Z,942.86
2023-04-14T14:42:47.461Z,942.98
2023-04-14T14:45:13.887Z,943.13
2023-04-14T14:47:40.423Z,942.64
2023-04-14T14:50:08.458Z,942.70
2023-04-14T14:52:33.068Z,942.90
2023-04-14T14:54:59.760Z,943.14
2023-04-14T14:57:26.150Z,943.14
2023-04-14T14:59:52.546Z,943.06
2023-04-14T15:02:19.105Z,942.95
2023-04-14T15:04:47.603Z,942.83
2023-04-14T15:07:13.997Z,942.55
2023-04-14T15:09:40.382Z,942.48
2023-04-14T15:12:06.768Z,942.62
2023-04-14T15:14:33.287Z,942.57
2023-04-14T15:16:59.726Z,942.56
2023-04-14T15:19:26.099Z,942.73
2023-04-14T15:21:52.592Z,942.89
2023-04-14T15:24:20.112Z,942.94
2023-04-14T15:26:46.476Z,942.97
2023-04-14T15:29:13.012Z,942.98
2023-04-14T15:31:39.403Z,942.99
2023-04-14T15:34:05.721Z,942.96
2023-04-14T15:36:32.141Z,942.98
2023-04-14T15:38:58.519Z,942.98
2023-04-14T15:41:24.898Z,942.83
2023-04-14T15:43:51.265Z,942.90
2023-04-14T15:46:17.827Z,942.95
2023-04-14T15:48:44.161Z,943.03
2023-04-14T15:51:10.594Z,942.94
2023-04-14T15:53:37.099Z,942.97
2023-04-14T15:56:03.423Z,942.95
2023-04-14T15:58:29.838Z,942.91
2023-04-14T16:00:56.306Z,942.90
2023-04-14T16:03:23.162Z,942.99
2023-04-14T16:05:49.597Z,943.08
2023-04-14T16:08:16.152Z,942.98
2023-04-14T16:10:43.010Z,942.93
2023-04-14T16:13:09.422Z,942.98
2023-04-14T16:15:35.883Z,943.02
2023-04-14T16:18:02.277Z,942.99
2023-04-14T16:20:28.670Z,942.94
2023-04-14T16:22:55.027Z,942.93
2023-04-14T16:25:22.228Z,942.89
2023-04-14T16:27:47.869Z,942.89
2023-04-14T16:30:14.259Z,942.84
2023-04-14T16:32:40.704Z,942.87
2023-04-14T16:35:09.013Z,942.91
2023-04-14T16:37:35.442Z,942.99
2023-04-14T16:40:01.935Z,942.98
2023-04-14T16:42:28.354Z,942.99
2023-04-14T16:44:54.732Z,943.00
2023-04-14T16:47:21.137Z,943.02
2023-04-14T16:49:47.519Z,943.06
2023-04-14T16:52:14.968Z,943.06
2023-04-14T16:54:41.377Z,943.12
2023-04-14T16:57:07.788Z,943.13
2023-04-14T16:59:34.274Z,943.06
2023-04-14T17:02:00.857Z,943.13
2023-04-14T17:04:27.546Z,943.15
2023-04-14T17:06:53.806Z,943.01
2023-04-14T17:09:20.187Z,942.96
2023-04-14T17:11:46.692Z,943.03
2023-04-14T17:14:13.059Z,942.94
2023-04-14T17:16:39.499Z,942.93
2023-04-14T17:19:05.900Z,943.07
2023-04-14T17:21:32.456Z,943.26
2023-04-14T17:23:58.835Z,943.32
2023-04-14T17:26:25.331Z,943.33
2023-04-14T17:28:52.740Z,943.32
2023-04-14T17:31:19.136Z,943.17
2023-04-14T17:33:45.509Z,943.19
2023-04-14T17:36:11.878Z,943.17
2023-04-14T17:38:38.298Z,943.17
2023-04-14T17:41:04.747Z,943.26
2023-04-14T17:43:31.129Z,943.32
2023-04-14T17:45:59.817Z,943.28
2023-04-14T17:48:27.279Z,943.39
2023-04-14T17:50:53.678Z,943.39
2023-04-14T17:53:20.127Z,943.53
2023-04-14T17:55:46.530Z,943.57
2023-04-14T17:58:12.950Z,943.54
2023-04-14T18:00:39.345Z,943.53
2023-04-14T18:03:05.947Z,943.55
2023-04-14T18:05:32.266Z,943.64
2023-04-14T18:07:58.739Z,943.62
2023-04-14T18:10:25.104Z,943.49
2023-04-14T18:12:51.492Z,943.69
2023-04-14T18:15:17.943Z,943.66
2023-04-14T18:17:44.317Z,943.72
2023-04-14T18:20:10.729Z,943.76
2023-04-14T18:22:37.099Z,943.53
2023-04-14T18:25:03.488Z,943.71
2023-04-14T18:29:56.404Z,943.71
2023-04-14T18:32:22.853Z,943.59
2023-04-14T18:34:49.290Z,943.61
2023-04-14T18:37:15.714Z,943.68
2023-04-14T18:39:42.022Z,943.72
2023-04-14T18:42:08.489Z,943.75
2023-04-14T18:44:34.856Z,943.55
2023-04-14T18:47:01.297Z,943.49
2023-04-14T18:49:27.697Z,943.47
2023-04-14T18:51:54.113Z,943.58
2023-04-14T18:54:20.587Z,943.60
2023-04-14T18:56:47.089Z,943.61
2023-04-14T18:59:13.603Z,943.60
2023-04-14T19:01:40.039Z,943.52
2023-04-14T19:04:06.463Z,943.52
2023-04-14T19:06:32.957Z,943.56
2023-04-14T19:08:59.586Z,943.58
2023-04-14T19:11:25.756Z,943.57
2023-04-14T19:13:52.175Z,943.52
2023-04-14T19:16:19.033Z,943.49
2023-04-14T19:18:45.619Z,943.58
2023-04-14T19:21:12.006Z,943.60
2023-04-14T19:23:38.461Z,943.77
2023-04-14T19:26:04.933Z,943.76
2023-04-14T19:28:31.344Z,943.75
2023-04-14T19:30:57.728Z,943.75
2023-04-14T19:33:26.749Z,943.73
2023-04-14T19:35:51.167Z,943.81
2023-04-14T19:38:17.700Z,943.86
2023-04-14T19:40:44.076Z,943.92
2023-04-14T19:43:10.444Z,943.92
2023-04-14T19:45:36.810Z,943.97
2023-04-14T19:48:15.962Z,943.97
2023-04-14T19:50:29.651Z,943.80
2023-04-14T19:52:56.056Z,943.70
2023-04-14T19:55:22.529Z,943.69
2023-04-14T19:57:48.958Z,943.75
2023-04-14T20:00:15.453Z,943.80
2023-04-14T20:02:41.899Z,943.79
2023-04-14T20:05:08.287Z,943.79
2023-04-14T20:07:34.667Z,943.72
2023-04-14T20:10:01.334Z,944.00
2023-04-14T20:12:27.691Z,944.11
2023-04-14T20:14:54.116Z,943.99
2023-04-14T20:17:20.680Z,943.90
2023-04-14T20:19:47.028Z,943.91
2023-04-14T20:22:13.440Z,944.06
2023-04-14T20:24:39.857Z,944.02
2023-04-14T20:27:06.286Z,944.10
2023-04-14T20:29:32.714Z,944.08
2023-04-14T20:31:59.264Z,944.01
2023-04-14T20:34:25.703Z,943.89
2023-04-14T20:36:52.078Z,944.08
2023-04-14T20:39:19.634Z,944.19
2023-04-14T20:41:46.056Z,944.13
2023-04-14T20:44:12.484Z,944.13
2023-04-14T20:46:38.956Z,944.20
2023-04-14T20:49:05.384Z,944.22
2023-04-14T20:51:31.742Z,944.14
2023-04-14T20:53:58.160Z,944.18
2023-04-14T20:56:24.642Z,944.25
2023-04-14T20:58:51.062Z,944.23
2023-04-14T21:01:17.819Z,944.08
2023-04-14T21:03:44.444Z,944.08
2023-04-14T21:06:10.577Z,944.14
2023-04-14T21:08:37.007Z,944.14
2023-04-14T21:11:16.292Z,944.16
2023-04-14T21:15:24.985Z,944.16
2023-04-14T21:15:56.991Z,944.09
2023-04-14T21:18:22.768Z,944.19
2023-04-14T21:20:49.136Z,944.33
2023-04-14T21:23:15.546Z,944.26
2023-04-14T21:25:41.934Z,944.12
2023-04-14T21:28:08.357Z,944.12
2023-04-14T21:30:34.722Z,944.42
2023-04-14T21:33:01.204Z,944.16
2023-04-14T21:35:27.632Z,944.23
2023-04-14T21:37:53.997Z,944.41
2023-04-14T21:40:20.456Z,944.32
2023-04-14T21:42:46.967Z,944.29
2023-04-14T21:45:15.763Z,944.30
2023-04-14T21:47:42.398Z,944.27
2023-04-14T21:50:08.837Z,944.21
2023-04-14T21:52:35.244Z,944.31
2023-04-14T21:55:01.614Z,944.29
2023-04-14T21:57:48.433Z,944.23
2023-04-14T21:59:54.432Z,944.33
2023-04-14T22:02:20.967Z,944.22
2023-04-14T22:04:47.261Z,944.34
2023-04-14T22:07:13.654Z,944.30
2023-04-14T22:09:40.547Z,944.31
2023-04-14T22:12:06.445Z,944.43
2023-04-14T22:14:32.805Z,944.37
2023-04-14T22:16:59.307Z,944.37
2023-04-14T22:19:25.716Z,944.49
2023-04-14T22:21:52.072Z,944.47
2023-04-14T22:24:20.939Z,944.53
2023-04-14T22:26:47.368Z,944.45
2023-04-14T22:29:13.783Z,944.46
2023-04-14T22:31:40.192Z,944.44
2023-04-14T22:34:06.625Z,944.44
2023-04-14T22:36:33.018Z,944.42
2023-04-14T22:38:59.634Z,944.34
2023-04-14T22:41:25.884Z,944.34
2023-04-14T22:43:52.303Z,944.36
2023-04-14T22:46:18.787Z,944.39
2023-04-14T22:48:45.280Z,944.31
2023-04-14T22:51:11.715Z,944.22
2023-04-14T22:53:38.069Z,944.25
2023-04-14T22:56:04.547Z,944.14
2023-04-14T22:58:31.946Z,944.07
2023-04-14T23:00:58.324Z,944.03
2023-04-14T23:03:24.863Z,944.09
2023-04-14T23:05:51.165Z,944.15
2023-04-14T23:08:17.615Z,944.26
2023-04-14T23:10:43.985Z,944.32
2023-04-14T23:13:10.379Z,944.40
2023-04-14T23:15:36.883Z,944.68
